N520YK KHSV-KBHM
Flight info
| Callsign | N520YK |
|---|---|
| Flight time | 0h 22m |
| Altitude | 10000 |
| Route | KCMD/N0260F090 |
| Aircraft | BE20/L-SBGRY/S |
Departure
| Time | 2026-04-24 06:51 |
|---|---|
| Airport | Huntsville International Airport (KHSV) |
Arrival
| Time | 2026-04-24 07:13 |
|---|---|
| Airport | Birmingham-Shuttlesworth International Airport (KBHM) |
| Time | Latitude | Longitude | Altitude | Speed | Heading |
|---|---|---|---|---|---|
| 2026-04-24 06:32 | 34.64849 | -86.76817 | 633 ft | 0 kts | 91° |
| 2026-04-24 06:41 | 34.64849 | -86.76821 | 633 ft | 2 kts | 90° |
| 2026-04-24 06:41 | 34.64844 | -86.76839 | 633 ft | 3 kts | 54° |
| 2026-04-24 06:41 | 34.64832 | -86.76851 | 633 ft | 0 kts | 27° |
| 2026-04-24 06:42 | 34.64834 | -86.76850 | 633 ft | 1 kts | 22° |
| 2026-04-24 06:42 | 34.64843 | -86.76859 | 633 ft | 2 kts | 271° |
| 2026-04-24 06:42 | 34.64834 | -86.76873 | 633 ft | 2 kts | 182° |
| 2026-04-24 06:43 | 34.64820 | -86.76865 | 633 ft | 3 kts | 150° |
| 2026-04-24 06:43 | 34.64790 | -86.76844 | 633 ft | 9 kts | 149° |
| 2026-04-24 06:43 | 34.64734 | -86.76794 | 633 ft | 12 kts | 92° |
| 2026-04-24 06:43 | 34.64766 | -86.76803 | 633 ft | 12 kts | 220° |
| 2026-04-24 06:44 | 34.64681 | -86.76818 | 633 ft | 12 kts | 178° |
| 2026-04-24 06:44 | 34.64599 | -86.76811 | 633 ft | 12 kts | 178° |
| 2026-04-24 06:44 | 34.64514 | -86.76813 | 633 ft | 13 kts | 181° |
| 2026-04-24 06:44 | 34.64471 | -86.76745 | 633 ft | 10 kts | 91° |
| 2026-04-24 06:45 | 34.64508 | -86.76687 | 633 ft | 11 kts | 7° |
| 2026-04-24 06:45 | 34.64597 | -86.76683 | 633 ft | 11 kts | 359° |
| 2026-04-24 06:45 | 34.64607 | -86.76683 | 633 ft | 0 kts | 359° |
| 2026-04-24 06:46 | 34.64634 | -86.76683 | 633 ft | 6 kts | 358° |
| 2026-04-24 06:46 | 34.64687 | -86.76682 | 633 ft | 9 kts | 0° |
| 2026-04-24 06:46 | 34.64750 | -86.76682 | 633 ft | 9 kts | 0° |
| 2026-04-24 06:47 | 34.64814 | -86.76679 | 633 ft | 10 kts | 1° |
| 2026-04-24 06:47 | 34.64883 | -86.76677 | 633 ft | 10 kts | 0° |
| 2026-04-24 06:47 | 34.64955 | -86.76677 | 633 ft | 11 kts | 359° |
| 2026-04-24 06:47 | 34.65030 | -86.76675 | 633 ft | 11 kts | 2° |
| 2026-04-24 06:48 | 34.65106 | -86.76673 | 633 ft | 11 kts | 1° |
| 2026-04-24 06:48 | 34.65183 | -86.76672 | 633 ft | 11 kts | 360° |
| 2026-04-24 06:48 | 34.65259 | -86.76668 | 633 ft | 7 kts | 16° |
| 2026-04-24 06:48 | 34.65281 | -86.76628 | 633 ft | 7 kts | 83° |
| 2026-04-24 06:49 | 34.65281 | -86.76613 | 633 ft | 0 kts | 89° |
| 2026-04-24 06:49 | 34.65277 | -86.76577 | 633 ft | 9 kts | 100° |
| 2026-04-24 06:50 | 34.65225 | -86.76549 | 633 ft | 11 kts | 180° |
| 2026-04-24 06:50 | 34.65124 | -86.76549 | 633 ft | 24 kts | 182° |
| 2026-04-24 06:50 | 34.64821 | -86.76559 | 633 ft | 65 kts | 179° |
| 2026-04-24 06:50 | 34.64238 | -86.76533 | 801 ft | 97 kts | 176° |
| 2026-04-24 06:51 | 34.63451 | -86.76518 | 970 ft | 123 kts | 184° |
| 2026-04-24 06:51 | 34.62622 | -86.76583 | 1531 ft | 112 kts | 181° |
| 2026-04-24 06:51 | 34.61859 | -86.76549 | 2079 ft | 110 kts | 178° |
| 2026-04-24 06:51 | 34.61098 | -86.76488 | 2548 ft | 113 kts | 176° |
| 2026-04-24 06:52 | 34.60296 | -86.76393 | 2965 ft | 119 kts | 175° |
| 2026-04-24 06:52 | 34.59449 | -86.76273 | 3359 ft | 125 kts | 174° |
| 2026-04-24 06:52 | 34.58571 | -86.76237 | 3738 ft | 128 kts | 187° |
| 2026-04-24 06:52 | 34.57699 | -86.76494 | 4134 ft | 130 kts | 195° |
| 2026-04-24 06:53 | 34.56828 | -86.76809 | 4507 ft | 131 kts | 195° |
| 2026-04-24 06:53 | 34.55953 | -86.77124 | 4885 ft | 131 kts | 196° |
| 2026-04-24 06:53 | 34.55077 | -86.77443 | 5263 ft | 131 kts | 195° |
| 2026-04-24 06:53 | 34.54217 | -86.77824 | 5634 ft | 133 kts | 206° |
| 2026-04-24 06:54 | 34.53463 | -86.78476 | 6015 ft | 134 kts | 214° |
| 2026-04-24 06:54 | 34.52731 | -86.79188 | 6344 ft | 143 kts | 214° |
| 2026-04-24 06:54 | 34.51907 | -86.79981 | 6723 ft | 157 kts | 215° |
| 2026-04-24 06:54 | 34.51326 | -86.80537 | 6982 ft | 164 kts | 215° |
| 2026-04-24 06:55 | 34.50410 | -86.81412 | 7373 ft | 171 kts | 214° |
| 2026-04-24 06:55 | 34.49361 | -86.82123 | 7759 ft | 175 kts | 201° |
| 2026-04-24 06:55 | 34.48204 | -86.82617 | 8140 ft | 178 kts | 196° |
| 2026-04-24 06:55 | 34.47003 | -86.83023 | 8519 ft | 180 kts | 194° |
| 2026-04-24 06:56 | 34.45387 | -86.83518 | 9017 ft | 182 kts | 193° |
| 2026-04-24 06:56 | 34.44556 | -86.83776 | 9272 ft | 183 kts | 194° |
| 2026-04-24 06:56 | 34.43323 | -86.84165 | 9650 ft | 184 kts | 194° |
| 2026-04-24 06:56 | 34.42085 | -86.84571 | 9893 ft | 191 kts | 195° |
| 2026-04-24 06:57 | 34.40758 | -86.85000 | 9980 ft | 203 kts | 195° |
| 2026-04-24 06:57 | 34.39360 | -86.85457 | 10002 ft | 213 kts | 195° |
| 2026-04-24 06:57 | 34.37911 | -86.85935 | 10006 ft | 220 kts | 195° |
| 2026-04-24 06:57 | 34.36416 | -86.86418 | 10006 ft | 225 kts | 195° |
| 2026-04-24 06:58 | 34.34891 | -86.86907 | 10005 ft | 228 kts | 195° |
| 2026-04-24 06:58 | 34.33351 | -86.87405 | 10008 ft | 230 kts | 195° |
| 2026-04-24 06:58 | 34.31804 | -86.87921 | 10008 ft | 231 kts | 195° |
| 2026-04-24 06:58 | 34.30250 | -86.88431 | 10006 ft | 232 kts | 195° |
| 2026-04-24 06:59 | 34.28687 | -86.88928 | 10011 ft | 232 kts | 195° |
| 2026-04-24 06:59 | 34.27126 | -86.89432 | 10008 ft | 233 kts | 195° |
| 2026-04-24 06:59 | 34.25561 | -86.89947 | 10010 ft | 233 kts | 195° |
| 2026-04-24 06:59 | 34.23996 | -86.90464 | 10007 ft | 233 kts | 195° |
| 2026-04-24 07:00 | 34.22442 | -86.90960 | 10004 ft | 233 kts | 194° |
| 2026-04-24 07:00 | 34.20876 | -86.91471 | 10009 ft | 233 kts | 195° |
| 2026-04-24 07:00 | 34.19287 | -86.91826 | 10007 ft | 234 kts | 184° |
| 2026-04-24 07:00 | 34.17681 | -86.91531 | 10008 ft | 237 kts | 160° |
| 2026-04-24 07:01 | 34.16193 | -86.90678 | 10010 ft | 237 kts | 160° |
| 2026-04-24 07:01 | 34.14644 | -86.89990 | 10012 ft | 236 kts | 163° |
| 2026-04-24 07:01 | 34.13084 | -86.89355 | 10007 ft | 237 kts | 163° |
| 2026-04-24 07:01 | 34.11524 | -86.88701 | 10004 ft | 237 kts | 163° |
| 2026-04-24 07:02 | 34.09959 | -86.88061 | 10004 ft | 237 kts | 163° |
| 2026-04-24 07:02 | 34.08376 | -86.87417 | 9741 ft | 246 kts | 163° |
| 2026-04-24 07:02 | 34.06760 | -86.86753 | 9366 ft | 241 kts | 163° |
| 2026-04-24 07:02 | 34.05222 | -86.86100 | 8997 ft | 236 kts | 162° |
| 2026-04-24 07:03 | 34.03674 | -86.85444 | 8621 ft | 235 kts | 162° |
| 2026-04-24 07:03 | 34.02140 | -86.84779 | 8244 ft | 234 kts | 161° |
| 2026-04-24 07:03 | 34.00602 | -86.84124 | 7871 ft | 234 kts | 162° |
| 2026-04-24 07:03 | 33.99071 | -86.83477 | 7496 ft | 233 kts | 161° |
| 2026-04-24 07:04 | 33.97537 | -86.82830 | 7123 ft | 233 kts | 161° |
| 2026-04-24 07:04 | 33.96010 | -86.82169 | 6748 ft | 233 kts | 161° |
| 2026-04-24 07:04 | 33.94486 | -86.81515 | 6371 ft | 232 kts | 161° |
| 2026-04-24 07:04 | 33.92969 | -86.80846 | 5998 ft | 232 kts | 161° |
| 2026-04-24 07:05 | 33.91456 | -86.80191 | 5625 ft | 231 kts | 162° |
| 2026-04-24 07:05 | 33.89941 | -86.79553 | 5246 ft | 230 kts | 161° |
| 2026-04-24 07:05 | 33.88429 | -86.78917 | 4871 ft | 230 kts | 161° |
| 2026-04-24 07:05 | 33.86926 | -86.78268 | 4501 ft | 230 kts | 161° |
| 2026-04-24 07:06 | 33.85418 | -86.77618 | 4121 ft | 230 kts | 161° |
| 2026-04-24 07:06 | 33.83911 | -86.76972 | 3750 ft | 229 kts | 161° |
| 2026-04-24 07:06 | 33.82453 | -86.76342 | 3592 ft | 221 kts | 161° |
| 2026-04-24 07:06 | 33.81032 | -86.75728 | 3525 ft | 212 kts | 161° |
| 2026-04-24 07:07 | 33.79661 | -86.75144 | 3509 ft | 205 kts | 161° |
| 2026-04-24 07:07 | 33.78299 | -86.74736 | 3508 ft | 199 kts | 172° |
| 2026-04-24 07:07 | 33.75522 | -86.74731 | 3216 ft | 205 kts | 179° |
| 2026-04-24 07:08 | 33.74077 | -86.74734 | 2969 ft | 209 kts | 179° |
| 2026-04-24 07:08 | 33.72609 | -86.74720 | 2718 ft | 212 kts | 179° |
| 2026-04-24 07:08 | 33.71131 | -86.74702 | 2481 ft | 213 kts | 179° |
| 2026-04-24 07:08 | 33.69657 | -86.74695 | 2355 ft | 209 kts | 180° |
| 2026-04-24 07:09 | 33.68338 | -86.74693 | 2381 ft | 167 kts | 179° |
| 2026-04-24 07:09 | 33.67412 | -86.74697 | 2333 ft | 104 kts | 180° |
| 2026-04-24 07:09 | 33.66772 | -86.74708 | 2230 ft | 84 kts | 180° |
| 2026-04-24 07:09 | 33.66133 | -86.74717 | 2324 ft | 100 kts | 180° |
| 2026-04-24 07:10 | 33.65425 | -86.74721 | 2317 ft | 97 kts | 180° |
| 2026-04-24 07:10 | 33.64814 | -86.74722 | 2253 ft | 80 kts | 179° |
| 2026-04-24 07:10 | 33.64260 | -86.74719 | 2271 ft | 80 kts | 179° |
| 2026-04-24 07:10 | 33.63684 | -86.74719 | 2324 ft | 86 kts | 179° |
| 2026-04-24 07:11 | 33.63055 | -86.74718 | 2338 ft | 94 kts | 179° |
| 2026-04-24 07:11 | 33.62411 | -86.74718 | 2305 ft | 90 kts | 180° |
| 2026-04-24 07:11 | 33.61789 | -86.74712 | 2288 ft | 88 kts | 178° |
| 2026-04-24 07:11 | 33.61175 | -86.74716 | 2143 ft | 92 kts | 184° |
| 2026-04-24 07:12 | 33.60546 | -86.74746 | 1882 ft | 88 kts | 181° |
| 2026-04-24 07:12 | 33.59938 | -86.74789 | 1586 ft | 87 kts | 179° |
| 2026-04-24 07:12 | 33.59324 | -86.74757 | 1240 ft | 90 kts | 180° |
| 2026-04-24 07:12 | 33.58714 | -86.74730 | 982 ft | 82 kts | 182° |
| 2026-04-24 07:13 | 33.58145 | -86.74719 | 838 ft | 83 kts | 181° |
| 2026-04-24 07:13 | 33.57575 | -86.74726 | 707 ft | 79 kts | 180° |
| 2026-04-24 07:13 | 33.57031 | -86.74717 | 654 ft | 81 kts | 181° |
| 2026-04-24 07:13 | 33.56561 | -86.74730 | 648 ft | 40 kts | 181° |
| 2026-04-24 07:14 | 33.56379 | -86.74720 | 648 ft | 18 kts | 167° |
| 2026-04-24 07:14 | 33.56286 | -86.74637 | 648 ft | 19 kts | 144° |
| 2026-04-24 07:14 | 33.56238 | -86.74494 | 648 ft | 20 kts | 49° |
| 2026-04-24 07:14 | 33.56368 | -86.74539 | 648 ft | 26 kts | 323° |
| 2026-04-24 07:15 | 33.56546 | -86.74543 | 648 ft | 29 kts | 37° |
| 2026-04-24 07:15 | 33.56574 | -86.74354 | 648 ft | 26 kts | 75° |
| 2026-04-24 07:15 | 33.56692 | -86.74191 | 648 ft | 9 kts | 4° |
| 2026-04-24 07:15 | 33.56695 | -86.74191 | 648 ft | 0 kts | 353° |